createdAt,value
2022-09-28T00:01:17.462Z,11.10
2022-09-28T00:03:46.230Z,11.03
2022-09-28T00:06:16.156Z,10.89
2022-09-28T00:08:44.352Z,10.93
2022-09-28T00:11:14.891Z,10.94
2022-09-28T00:13:43.974Z,10.87
2022-09-28T00:16:14.232Z,10.75
2022-09-28T00:18:44.842Z,10.69
2022-09-28T00:21:15.954Z,10.71
2022-09-28T00:23:59.274Z,10.72
2022-09-28T00:26:28.583Z,10.70
2022-09-28T00:28:59.710Z,10.51
2022-09-28T00:31:31.867Z,10.55
2022-09-28T00:34:01.840Z,10.55
2022-09-28T00:36:32.218Z,10.56
2022-09-28T00:39:05.971Z,10.59
2022-09-28T00:41:35.363Z,10.56
2022-09-28T00:44:34.648Z,10.50
2022-09-28T00:47:09.288Z,10.48
2022-09-28T00:49:43.664Z,10.38
2022-09-28T00:52:15.996Z,10.34
2022-09-28T00:54:47.327Z,10.38
2022-09-28T00:57:16.732Z,10.35
2022-09-28T00:59:45.237Z,10.28
2022-09-28T01:02:13.669Z,10.24
2022-09-28T01:04:42.071Z,10.13
2022-09-28T01:07:11.882Z,10.11
2022-09-28T01:09:40.537Z,10.12
2022-09-28T01:12:09.224Z,10.11
2022-09-28T01:14:38.052Z,10.07
2022-09-28T01:17:13.222Z,10.08
2022-09-28T01:20:27.858Z,9.90
2022-09-28T01:23:39.855Z,9.94
2022-09-28T01:26:34.529Z,9.97
2022-09-28T01:29:10.815Z,9.93
2022-09-28T01:31:43.916Z,9.84
2022-09-28T01:34:16.041Z,9.71
2022-09-28T01:36:50.213Z,9.71
2022-09-28T01:39:24.032Z,9.62
2022-09-28T01:41:54.190Z,9.66
2022-09-28T01:44:24.693Z,9.65
2022-09-28T01:47:02.808Z,9.71
2022-09-28T01:49:36.072Z,9.76
2022-09-28T01:52:10.905Z,9.75
2022-09-28T01:54:44.407Z,9.71
2022-09-28T01:57:15.766Z,9.71
2022-09-28T01:59:51.924Z,9.73
2022-09-28T02:02:25.008Z,9.71
2022-09-28T02:04:56.938Z,9.74
2022-09-28T02:07:31.923Z,9.73
2022-09-28T02:10:05.361Z,9.67
2022-09-28T02:12:36.989Z,9.67
2022-09-28T02:15:13.929Z,9.62
2022-09-28T02:17:42.531Z,9.62
2022-09-28T02:20:14.774Z,9.64
2022-09-28T02:22:48.884Z,9.55
2022-09-28T02:25:23.750Z,9.57
2022-09-28T02:27:56.713Z,9.57
2022-09-28T02:30:25.049Z,9.43
2022-09-28T02:32:56.816Z,9.43
2022-09-28T02:35:25.276Z,9.47
2022-09-28T02:37:54.811Z,9.35
2022-09-28T02:40:28.728Z,9.39
2022-09-28T02:43:04.063Z,9.40
2022-09-28T02:45:46.239Z,9.46
2022-09-28T02:48:43.161Z,9.49
2022-09-28T02:51:21.213Z,9.44
2022-09-28T02:54:18.544Z,9.48
2022-09-28T02:57:07.614Z,9.43
2022-09-28T02:59:47.066Z,9.38
2022-09-28T03:02:23.425Z,9.33
2022-09-28T03:05:03.751Z,9.40
2022-09-28T03:07:36.646Z,9.45
2022-09-28T03:10:13.486Z,9.37
2022-09-28T03:12:44.890Z,9.26
2022-09-28T03:15:19.610Z,9.34
2022-09-28T03:17:48.102Z,9.25
2022-09-28T03:20:17.229Z,8.90
2022-09-28T03:23:00.292Z,9.04
2022-09-28T03:25:34.037Z,9.04
2022-09-28T03:28:02.523Z,9.11
2022-09-28T03:30:31.552Z,9.12
2022-09-28T03:33:01.754Z,8.99
2022-09-28T03:35:31.513Z,8.64
2022-09-28T03:37:59.682Z,8.78
2022-09-28T03:40:28.907Z,8.86
2022-09-28T03:42:57.147Z,9.00
2022-09-28T03:45:25.469Z,9.02
2022-09-28T03:47:53.960Z,9.01
2022-09-28T03:50:22.144Z,8.82
2022-09-28T03:52:50.561Z,8.73
2022-09-28T03:55:18.825Z,8.91
2022-09-28T03:57:54.926Z,9.02
2022-09-28T04:00:23.552Z,9.02
2022-09-28T04:02:51.762Z,8.98
2022-09-28T04:05:20.097Z,8.91
2022-09-28T04:07:49.351Z,8.84
2022-09-28T04:10:17.655Z,8.69
2022-09-28T04:12:46.040Z,8.87
2022-09-28T04:15:16.361Z,8.87
2022-09-28T04:17:44.699Z,8.85
2022-09-28T04:20:26.361Z,8.87
2022-09-28T04:23:02.126Z,8.71
2022-09-28T04:25:30.952Z,8.79
2022-09-28T04:28:17.935Z,8.70
2022-09-28T04:30:47.606Z,8.72
2022-09-28T04:33:16.154Z,8.73
2022-09-28T04:35:44.606Z,8.57
2022-09-28T04:38:12.862Z,8.59
2022-09-28T04:40:41.634Z,8.58
2022-09-28T04:43:10.038Z,8.56
2022-09-28T04:45:38.275Z,8.63
2022-09-28T04:48:10.444Z,8.76
2022-09-28T04:51:03.035Z,8.82
2022-09-28T04:53:31.937Z,8.82
2022-09-28T04:56:01.793Z,8.81
2022-09-28T04:58:31.597Z,8.78
2022-09-28T05:01:01.905Z,8.71
2022-09-28T05:03:50.514Z,8.68
2022-09-28T05:06:30.046Z,8.77
2022-09-28T05:09:06.144Z,8.90
2022-09-28T05:11:34.814Z,8.95
2022-09-28T05:14:03.319Z,9.00
2022-09-28T05:16:33.160Z,9.09
2022-09-28T05:19:20.241Z,9.12
2022-09-28T05:21:49.005Z,9.10
2022-09-28T05:24:17.250Z,9.06
2022-09-28T05:26:51.165Z,9.08
2022-09-28T05:29:19.421Z,9.12
2022-09-28T05:32:21.145Z,9.16
2022-09-28T05:39:40.325Z,9.29
2022-09-28T05:42:08.661Z,9.36
2022-09-28T05:44:37.837Z,9.42
2022-09-28T05:47:06.377Z,9.49
2022-09-28T05:49:34.673Z,9.55
2022-09-28T05:52:03.408Z,9.58
2022-09-28T05:54:32.693Z,9.57
2022-09-28T05:57:04.441Z,9.61
2022-09-28T05:59:34.470Z,9.64
2022-09-28T06:02:03.162Z,9.70
2022-09-28T06:04:32.107Z,9.75
2022-09-28T06:07:00.360Z,9.75
2022-09-28T06:09:29.855Z,9.75
2022-09-28T06:12:19.219Z,9.79
2022-09-28T06:14:50.162Z,9.73
2022-09-28T06:17:18.404Z,9.49
2022-09-28T06:19:52.604Z,9.61
2022-09-28T06:22:26.996Z,9.57
2022-09-28T06:25:08.292Z,9.71
2022-09-28T06:27:37.040Z,9.79
2022-09-28T06:30:06.905Z,9.90
2022-09-28T06:32:35.619Z,9.91
2022-09-28T06:35:05.006Z,9.83
2022-09-28T06:37:33.333Z,9.87
2022-09-28T06:40:04.471Z,9.90
2022-09-28T06:42:32.990Z,9.91
2022-09-28T06:45:31.415Z,9.93
2022-09-28T06:48:25.938Z,10.02
2022-09-28T06:50:54.389Z,10.04
2022-09-28T06:53:28.859Z,10.10
2022-09-28T06:56:11.650Z,10.19
2022-09-28T06:58:39.880Z,10.16
2022-09-28T07:01:11.296Z,10.12
2022-09-28T07:04:15.102Z,10.17
2022-09-28T07:07:02.185Z,10.19
2022-09-28T07:10:10.422Z,10.23
2022-09-28T07:13:05.041Z,10.35
2022-09-28T07:15:43.356Z,10.38
2022-09-28T07:18:14.624Z,10.38
2022-09-28T07:20:53.750Z,10.29
2022-09-28T07:23:23.330Z,10.20
2022-09-28T07:26:10.591Z,10.30
2022-09-28T07:28:45.620Z,10.41
2022-09-28T07:31:34.435Z,10.37
2022-09-28T07:34:14.228Z,10.44
2022-09-28T07:37:11.011Z,10.63
2022-09-28T07:39:54.101Z,10.81
2022-09-28T07:42:22.737Z,10.77
2022-09-28T07:44:51.024Z,10.87
2022-09-28T07:47:28.599Z,10.88
2022-09-28T07:50:34.643Z,11.12
2022-09-28T07:53:22.220Z,11.14
2022-09-28T07:56:01.295Z,11.33
2022-09-28T07:58:42.716Z,11.42
2022-09-28T08:01:30.260Z,11.55
2022-09-28T08:03:59.750Z,11.62
2022-09-28T08:06:31.027Z,11.64
2022-09-28T08:09:01.090Z,11.68
2022-09-28T08:11:49.434Z,11.73
2022-09-28T08:14:36.965Z,11.77
2022-09-28T08:17:23.985Z,11.74
2022-09-28T08:20:14.736Z,11.91
2022-09-28T08:22:43.660Z,11.94
2022-09-28T08:25:12.649Z,11.73
2022-09-28T08:27:40.849Z,11.84
2022-09-28T08:30:11.328Z,11.80
2022-09-28T08:33:07.337Z,11.96
2022-09-28T08:35:46.032Z,11.80
2022-09-28T08:38:20.785Z,11.84
2022-09-28T08:41:24.732Z,11.96
2022-09-28T08:44:15.615Z,12.16
2022-09-28T08:47:07.504Z,12.29
2022-09-28T08:49:49.531Z,12.34
2022-09-28T08:52:39.394Z,12.04
2022-09-28T08:55:30.765Z,12.03
2022-09-28T08:58:04.909Z,12.19
2022-09-28T09:00:42.188Z,12.35
2022-09-28T09:03:13.558Z,12.34
2022-09-28T09:05:55.244Z,12.53
2022-09-28T09:08:59.392Z,12.69
2022-09-28T09:11:48.146Z,12.91
2022-09-28T09:14:38.225Z,12.93
2022-09-28T09:17:17.707Z,13.02
2022-09-28T09:20:04.233Z,12.77
2022-09-28T09:22:59.223Z,12.88
2022-09-28T09:25:38.403Z,13.01
2022-09-28T09:28:34.612Z,12.85
2022-09-28T09:31:16.912Z,12.80
2022-09-28T09:34:04.424Z,12.89
2022-09-28T09:37:17.001Z,13.07
2022-09-28T09:40:24.235Z,12.89
2022-09-28T09:43:59.230Z,13.00
2022-09-28T09:46:49.540Z,13.34
2022-09-28T09:49:40.963Z,13.68
2022-09-28T09:52:18.917Z,14.17
2022-09-28T09:54:52.450Z,14.47
2022-09-28T09:57:52.358Z,14.27
2022-09-28T10:00:34.604Z,14.15
2022-09-28T10:03:21.451Z,14.04
2022-09-28T10:05:55.070Z,14.12
2022-09-28T10:08:25.794Z,14.22
2022-09-28T10:11:07.000Z,14.41
2022-09-28T10:13:36.308Z,14.66
2022-09-28T10:16:08.268Z,15.09
2022-09-28T10:18:45.396Z,14.88
2022-09-28T10:21:36.886Z,15.29
2022-09-28T10:24:30.887Z,15.53
2022-09-28T10:27:04.834Z,15.44
2022-09-28T10:29:43.832Z,15.57
2022-09-28T10:32:24.516Z,15.66
2022-09-28T10:35:14.447Z,15.67
2022-09-28T10:37:54.555Z,15.60
2022-09-28T10:40:45.013Z,15.24
2022-09-28T10:43:22.452Z,15.16
2022-09-28T10:46:01.291Z,15.16
2022-09-28T10:48:38.966Z,15.16
2022-09-28T10:51:08.418Z,15.09
2022-09-28T10:53:37.093Z,15.11
2022-09-28T10:56:36.786Z,15.03
2022-09-28T10:59:24.100Z,15.20
2022-09-28T11:01:56.194Z,15.17
2022-09-28T11:04:28.154Z,15.22
2022-09-28T11:09:41.164Z,15.07
2022-09-28T11:12:15.908Z,15.07
2022-09-28T11:14:45.599Z,15.17
2022-09-28T11:17:26.889Z,15.20
2022-09-28T11:19:56.592Z,15.05
2022-09-28T11:22:29.211Z,14.91
2022-09-28T11:25:22.884Z,14.81
2022-09-28T11:28:00.996Z,14.64
2022-09-28T11:30:33.871Z,14.76
2022-09-28T11:33:26.981Z,14.81
2022-09-28T11:36:43.896Z,14.55
2022-09-28T11:39:23.485Z,14.49
2022-09-28T11:42:15.504Z,14.60
2022-09-28T11:44:47.558Z,14.59
2022-09-28T11:47:36.349Z,14.55
2022-09-28T11:50:14.063Z,14.61
2022-09-28T11:52:49.061Z,14.51
2022-09-28T11:55:24.577Z,14.66
2022-09-28T11:58:01.236Z,14.63
2022-09-28T12:00:37.049Z,14.64
2022-09-28T12:03:11.522Z,14.79
2022-09-28T12:05:44.072Z,14.90
2022-09-28T12:08:16.195Z,14.96
2022-09-28T12:11:09.337Z,14.92
2022-09-28T12:14:00.205Z,14.92
2022-09-28T12:17:04.309Z,14.75
2022-09-28T12:19:29.733Z,14.71
2022-09-28T12:22:03.800Z,14.68
2022-09-28T12:24:37.248Z,14.52
2022-09-28T12:27:14.177Z,14.65
2022-09-28T12:29:47.171Z,14.77
2022-09-28T12:32:26.295Z,14.80
2022-09-28T12:34:55.397Z,14.79
2022-09-28T12:37:38.327Z,14.86
2022-09-28T12:40:31.622Z,14.72
2022-09-28T12:43:12.198Z,14.70
2022-09-28T12:46:17.679Z,14.71
2022-09-28T12:50:07.219Z,14.71
2022-09-28T12:52:05.276Z,14.69
2022-09-28T12:55:05.255Z,14.66
2022-09-28T12:57:44.700Z,14.60
2022-09-28T13:00:17.110Z,14.56
2022-09-28T13:03:37.524Z,14.57
2022-09-28T13:06:32.254Z,14.52
2022-09-28T13:09:21.940Z,14.49
2022-09-28T13:12:09.798Z,14.44
2022-09-28T13:15:21.123Z,14.39
2022-09-28T13:18:00.289Z,14.27
2022-09-28T13:20:37.555Z,14.27
2022-09-28T13:23:15.255Z,14.25
2022-09-28T13:25:50.186Z,14.11
2022-09-28T13:28:23.954Z,14.09
2022-09-28T13:33:36.326Z,14.21
2022-09-28T13:36:26.724Z,14.24
2022-09-28T13:38:56.397Z,14.22
2022-09-28T13:41:29.121Z,14.14
2022-09-28T13:44:15.871Z,14.16
2022-09-28T13:46:54.947Z,14.11
2022-09-28T13:49:31.866Z,14.12
2022-09-28T13:52:07.750Z,14.14
2022-09-28T13:55:00.052Z,14.13
2022-09-28T13:57:36.618Z,14.11
2022-09-28T14:00:17.644Z,14.05
2022-09-28T14:02:48.661Z,14.00
2022-09-28T14:05:47.358Z,13.95
2022-09-28T14:08:31.091Z,13.85
2022-09-28T14:11:41.238Z,13.75
2022-09-28T14:14:31.630Z,13.61
2022-09-28T14:17:44.874Z,13.42
2022-09-28T14:20:17.404Z,13.06
2022-09-28T14:23:05.980Z,12.52
2022-09-28T14:25:42.724Z,12.44
2022-09-28T14:28:28.560Z,12.32
2022-09-28T14:30:58.183Z,12.15
2022-09-28T14:33:29.021Z,12.12
2022-09-28T14:36:01.263Z,12.08
2022-09-28T14:38:54.081Z,11.76
2022-09-28T14:41:33.113Z,11.83
2022-09-28T14:44:04.898Z,11.94
2022-09-28T14:46:36.551Z,12.00
2022-09-28T14:49:32.641Z,11.95
2022-09-28T14:52:03.240Z,11.96
2022-09-28T14:54:44.770Z,11.94
2022-09-28T14:57:23.616Z,11.90
2022-09-28T14:59:54.961Z,11.75
2022-09-28T15:02:32.359Z,11.64
2022-09-28T15:05:14.121Z,11.60
2022-09-28T15:07:51.117Z,11.53
2022-09-28T15:10:30.923Z,11.60
2022-09-28T15:13:02.529Z,11.60
2022-09-28T15:15:36.057Z,11.57
2022-09-28T15:18:47.156Z,11.42
2022-09-28T15:21:15.688Z,10.97
2022-09-28T15:23:46.186Z,11.02
2022-09-28T15:26:26.703Z,11.17
2022-09-28T15:28:58.337Z,11.24
2022-09-28T15:31:30.780Z,11.19
2022-09-28T15:34:17.393Z,11.16
2022-09-28T15:36:46.486Z,11.08
2022-09-28T15:39:21.113Z,11.14
2022-09-28T15:41:53.228Z,11.04
2022-09-28T15:44:32.204Z,11.19
2022-09-28T15:47:08.916Z,11.22
2022-09-28T15:49:44.122Z,11.04
2022-09-28T15:52:32.066Z,10.89
2022-09-28T15:55:01.780Z,11.13
2022-09-28T15:57:36.166Z,11.18
2022-09-28T16:00:07.426Z,11.08
2022-09-28T16:02:59.617Z,11.10
2022-09-28T16:05:39.093Z,11.06
2022-09-28T16:08:20.575Z,11.00
2022-09-28T16:11:08.362Z,11.10
2022-09-28T16:13:43.662Z,11.11
2022-09-28T16:16:16.436Z,10.94
2022-09-28T16:18:48.027Z,10.78
2022-09-28T16:21:44.267Z,10.56
2022-09-28T16:24:27.602Z,10.76
2022-09-28T16:27:00.289Z,10.86
2022-09-28T16:29:39.201Z,10.92
2022-09-28T16:32:41.721Z,10.93
2022-09-28T16:35:25.149Z,10.82
2022-09-28T16:38:00.974Z,10.84
2022-09-28T16:40:31.966Z,10.91
2022-09-28T16:43:04.387Z,10.93
2022-09-28T16:45:35.640Z,10.81
2022-09-28T16:48:05.521Z,10.71
2022-09-28T16:50:34.150Z,10.79
2022-09-28T16:53:30.754Z,10.76
2022-09-28T16:56:00.091Z,10.83
2022-09-28T16:58:30.506Z,10.75
2022-09-28T17:01:00.648Z,10.73
2022-09-28T17:03:29.736Z,10.80
2022-09-28T17:05:58.127Z,10.75
2022-09-28T17:08:26.775Z,10.63
2022-09-28T17:11:13.919Z,10.67
2022-09-28T17:13:45.418Z,10.76
2022-09-28T17:16:17.019Z,10.82
2022-09-28T17:18:47.554Z,10.81
2022-09-28T17:21:18.862Z,10.90
2022-09-28T17:23:48.868Z,10.91
2022-09-28T17:26:22.588Z,10.86
2022-09-28T17:28:50.740Z,10.78
2022-09-28T17:31:19.007Z,10.65
2022-09-28T17:33:47.336Z,10.58
2022-09-28T17:36:17.756Z,10.51
2022-09-28T17:38:47.507Z,10.54
2022-09-28T17:41:20.368Z,10.48
2022-09-28T17:43:49.549Z,10.41
2022-09-28T17:46:26.882Z,10.30
2022-09-28T17:48:57.417Z,10.30
2022-09-28T17:51:26.165Z,10.18
2022-09-28T17:53:56.433Z,10.11
2022-09-28T17:56:31.047Z,10.11
2022-09-28T17:59:02.990Z,10.33
2022-09-28T18:01:33.418Z,10.38
2022-09-28T18:04:03.596Z,10.31
2022-09-28T18:06:33.140Z,10.43
2022-09-28T18:09:02.528Z,10.37
2022-09-28T18:11:32.964Z,10.38
2022-09-28T18:14:01.834Z,10.32
2022-09-28T18:16:30.182Z,10.24
2022-09-28T18:18:59.030Z,10.16
2022-09-28T18:21:27.688Z,10.16
2022-09-28T18:23:58.730Z,10.20
2022-09-28T18:26:27.065Z,10.12
2022-09-28T18:28:55.605Z,10.27
2022-09-28T18:31:23.781Z,10.32
2022-09-28T18:33:59.437Z,10.28
2022-09-28T18:36:33.134Z,10.21
2022-09-28T18:39:02.694Z,10.24
2022-09-28T18:41:31.004Z,10.23
2022-09-28T18:44:00.393Z,10.32
2022-09-28T18:46:35.876Z,10.37
2022-09-28T18:49:04.748Z,10.21
2022-09-28T18:51:33.492Z,10.25
2022-09-28T18:54:06.581Z,10.37
2022-09-28T18:56:37.288Z,10.34
2022-09-28T18:59:09.965Z,10.29
2022-09-28T19:01:41.507Z,10.21
2022-09-28T19:04:13.018Z,10.09
2022-09-28T19:06:43.806Z,10.16
2022-09-28T19:09:12.821Z,10.09
2022-09-28T19:11:41.315Z,10.07
2022-09-28T19:14:14.211Z,10.08
2022-09-28T19:16:42.106Z,10.15
2022-09-28T19:19:12.296Z,10.12
2022-09-28T19:21:42.553Z,10.26
2022-09-28T19:24:13.811Z,10.17
2022-09-28T19:26:43.017Z,10.09
2022-09-28T19:29:12.449Z,10.03
2022-09-28T19:31:43.140Z,9.99
2022-09-28T19:34:14.115Z,10.02
2022-09-28T19:36:44.211Z,10.01
2022-09-28T19:39:15.536Z,10.10
2022-09-28T19:41:49.145Z,10.10
2022-09-28T19:44:23.732Z,10.14
2022-09-28T19:46:55.279Z,10.19
2022-09-28T19:49:25.913Z,10.14
2022-09-28T19:52:12.205Z,10.10
2022-09-28T19:54:43.124Z,10.11
2022-09-28T19:57:13.792Z,10.09
2022-09-28T19:59:42.267Z,10.11
2022-09-28T20:02:14.149Z,10.18
2022-09-28T20:04:42.932Z,10.17
2022-09-28T20:07:11.418Z,10.09
2022-09-28T20:09:39.698Z,9.96
2022-09-28T20:12:08.584Z,10.10
2022-09-28T20:14:39.590Z,10.24
2022-09-28T20:17:10.296Z,10.12
2022-09-28T20:19:38.769Z,10.09
2022-09-28T20:22:07.370Z,10.27
2022-09-28T20:24:35.842Z,10.22
2022-09-28T20:27:03.997Z,10.21
2022-09-28T20:29:34.766Z,10.21
2022-09-28T20:32:04.393Z,10.19
2022-09-28T20:34:33.342Z,10.11
2022-09-28T20:37:01.845Z,10.01
2022-09-28T20:39:30.117Z,10.03
2022-09-28T20:41:58.341Z,9.99
2022-09-28T20:44:26.592Z,10.10
2022-09-28T20:46:55.560Z,10.14
2022-09-28T20:49:24.037Z,10.10
2022-09-28T20:51:52.488Z,10.18
2022-09-28T20:54:21.679Z,10.05
2022-09-28T20:56:49.942Z,10.13
2022-09-28T20:59:19.378Z,10.14
2022-09-28T21:01:47.674Z,9.98
2022-09-28T21:04:15.907Z,9.95
2022-09-28T21:06:44.173Z,9.90
2022-09-28T21:09:12.876Z,9.91
2022-09-28T21:11:41.045Z,9.89
2022-09-28T21:14:09.790Z,9.78
2022-09-28T21:16:38.020Z,9.93
2022-09-28T21:19:06.167Z,10.10
2022-09-28T21:21:34.486Z,9.97
2022-09-28T21:24:03.831Z,9.95
2022-09-28T21:26:32.984Z,9.89
2022-09-28T21:29:03.281Z,9.97
2022-09-28T21:31:37.216Z,9.92
2022-09-28T21:34:04.593Z,9.93
2022-09-28T21:36:33.105Z,10.02
2022-09-28T21:39:01.341Z,9.86
2022-09-28T21:41:29.939Z,9.88
2022-09-28T21:43:58.392Z,9.84
2022-09-28T21:46:32.802Z,9.91
2022-09-28T21:49:02.128Z,9.98
2022-09-28T21:51:30.966Z,9.89
2022-09-28T21:53:59.127Z,9.93
2022-09-28T21:56:27.358Z,9.83
2022-09-28T21:58:55.610Z,9.95
2022-09-28T22:01:25.439Z,9.86
2022-09-28T22:03:54.797Z,9.79
2022-09-28T22:06:27.228Z,9.77
2022-09-28T22:08:56.004Z,9.66
2022-09-28T22:11:26.620Z,9.62
2022-09-28T22:13:56.363Z,9.74
2022-09-28T22:16:27.344Z,9.66
2022-09-28T22:18:55.920Z,9.74
2022-09-28T22:21:26.989Z,9.81
2022-09-28T22:24:00.108Z,9.82
2022-09-28T22:26:31.096Z,9.96
2022-09-28T22:29:01.017Z,10.03
2022-09-28T22:31:31.578Z,10.07
2022-09-28T22:34:00.165Z,10.07
2022-09-28T22:36:29.400Z,10.11
2022-09-28T22:38:58.597Z,10.11
2022-09-28T22:41:27.697Z,10.09
2022-09-28T22:43:56.092Z,10.07
2022-09-28T22:46:26.400Z,10.09
2022-09-28T22:48:56.541Z,10.11
2022-09-28T22:51:26.684Z,10.06
2022-09-28T22:53:56.157Z,10.02
2022-09-28T22:56:25.156Z,9.95
2022-09-28T22:58:53.407Z,9.96
2022-09-28T23:01:23.258Z,9.99
2022-09-28T23:03:53.185Z,9.97
2022-09-28T23:06:23.825Z,10.03
2022-09-28T23:08:53.362Z,9.89
2022-09-28T23:11:21.841Z,9.79
2022-09-28T23:13:51.164Z,9.91
2022-09-28T23:16:19.922Z,9.99
2022-09-28T23:18:48.420Z,10.00
2022-09-28T23:21:18.636Z,9.98
2022-09-28T23:23:52.217Z,10.03
2022-09-28T23:26:22.460Z,10.00
2022-09-28T23:28:52.021Z,10.07
2022-09-28T23:31:22.445Z,10.08
2022-09-28T23:33:51.517Z,10.08
2022-09-28T23:36:19.818Z,10.09
2022-09-28T23:38:48.191Z,10.04
2022-09-28T23:41:16.438Z,10.11
2022-09-28T23:43:44.765Z,10.02
2022-09-28T23:46:14.543Z,9.93
2022-09-28T23:48:45.483Z,10.02
2022-09-28T23:51:13.678Z,10.05
2022-09-28T23:53:42.555Z,10.02
2022-09-28T23:56:10.774Z,9.94
2022-09-28T23:58:38.978Z,10.03
